createdAt,value
2022-12-22T00:02:19.508Z,96537.00
2022-12-22T00:05:06.802Z,96525.00
2022-12-22T00:07:52.662Z,96516.00
2022-12-22T00:10:37.915Z,96523.00
2022-12-22T00:13:23.345Z,96528.00
2022-12-22T00:16:09.047Z,96511.00
2022-12-22T00:18:54.370Z,96498.00
2022-12-22T00:21:39.412Z,96515.00
2022-12-22T00:24:24.332Z,96517.00
2022-12-22T00:27:09.361Z,96493.00
2022-12-22T00:29:57.733Z,96496.00
2022-12-22T00:32:43.923Z,96493.00
2022-12-22T00:35:32.855Z,96479.00
2022-12-22T00:38:18.020Z,96486.00
2022-12-22T00:41:03.179Z,96477.00
2022-12-22T00:43:48.389Z,96484.00
2022-12-22T00:46:35.412Z,96474.00
2022-12-22T00:49:20.768Z,96474.00
2022-12-22T00:52:05.873Z,96478.00
2022-12-22T00:54:50.895Z,96487.00
2022-12-22T00:57:37.252Z,96483.00
2022-12-22T01:00:25.328Z,96476.00
2022-12-22T01:03:10.469Z,96475.00
2022-12-22T01:05:56.021Z,96459.00
2022-12-22T01:08:41.242Z,96476.00
2022-12-22T01:11:26.554Z,96471.00
2022-12-22T01:14:11.623Z,96474.00
2022-12-22T01:16:56.604Z,96452.00
2022-12-22T01:19:41.598Z,96473.00
2022-12-22T01:22:30.084Z,96455.00
2022-12-22T01:25:15.066Z,96455.00
2022-12-22T01:28:00.128Z,96452.00
2022-12-22T01:30:45.083Z,96473.00
2022-12-22T01:33:31.224Z,96464.00
2022-12-22T01:36:16.449Z,96461.00
2022-12-22T01:39:01.539Z,96457.00
2022-12-22T01:41:46.616Z,96468.00
2022-12-22T01:44:34.093Z,96470.00
2022-12-22T01:50:00.885Z,96469.00
2022-12-22T01:52:50.709Z,96475.00
2022-12-22T01:55:39.579Z,96465.00
2022-12-22T01:58:28.992Z,96475.00
2022-12-22T02:01:14.251Z,96464.00
2022-12-22T02:03:59.861Z,96466.00
2022-12-22T02:07:00.337Z,96449.00
2022-12-22T02:09:50.023Z,96476.00
2022-12-22T02:12:41.360Z,96448.00
2022-12-22T02:15:34.577Z,96429.00
2022-12-22T02:18:31.688Z,96430.00
2022-12-22T02:21:24.196Z,96440.00
2022-12-22T02:24:35.157Z,96422.00
2022-12-22T02:27:20.330Z,96429.00
2022-12-22T02:30:11.570Z,96426.00
2022-12-22T02:33:05.172Z,96432.00
2022-12-22T02:36:02.444Z,96401.00
2022-12-22T02:38:57.402Z,96402.00
2022-12-22T02:42:06.405Z,96413.00
2022-12-22T02:45:10.044Z,96406.00
2022-12-22T02:48:04.938Z,96392.00
2022-12-22T02:51:00.814Z,96392.00
2022-12-22T02:53:47.777Z,96374.00
2022-12-22T02:56:33.128Z,96380.00
2022-12-22T02:59:18.258Z,96372.00
2022-12-22T03:02:05.322Z,96380.00
2022-12-22T03:04:50.642Z,96384.00
2022-12-22T03:07:35.609Z,96351.00
2022-12-22T03:10:20.957Z,96378.00
2022-12-22T03:13:05.997Z,96360.00
2022-12-22T03:15:51.332Z,96361.00
2022-12-22T03:18:36.612Z,96340.00
2022-12-22T03:21:21.816Z,96344.00
2022-12-22T03:24:07.021Z,96351.00
2022-12-22T03:26:33.786Z,96349.00
2022-12-22T03:29:00.476Z,96350.00
2022-12-22T03:31:27.693Z,96325.00
2022-12-22T03:33:54.567Z,96339.00
2022-12-22T03:36:21.232Z,96337.00
2022-12-22T03:38:47.914Z,96348.00
2022-12-22T03:41:34.554Z,96333.00
2022-12-22T03:44:27.936Z,96334.00
2022-12-22T03:47:54.347Z,96340.00
2022-12-22T03:50:27.868Z,96337.00
2022-12-22T03:53:05.492Z,96351.00
2022-12-22T03:55:38.574Z,96314.00
2022-12-22T03:58:14.723Z,96342.00
2022-12-22T04:00:47.034Z,96334.00
2022-12-22T04:03:19.701Z,96347.00
2022-12-22T04:05:54.687Z,96344.00
2022-12-22T04:08:32.329Z,96346.00
2022-12-22T04:11:25.459Z,96359.00
2022-12-22T04:13:52.769Z,96352.00
2022-12-22T04:16:25.328Z,96351.00
2022-12-22T04:19:01.174Z,96341.00
2022-12-22T04:21:43.058Z,96340.00
2022-12-22T04:24:11.627Z,96342.00
2022-12-22T04:26:38.706Z,96348.00
2022-12-22T04:29:05.470Z,96332.00
2022-12-22T04:31:32.230Z,96347.00
2022-12-22T04:33:58.977Z,96360.00
2022-12-22T04:36:25.674Z,96346.00
2022-12-22T04:38:52.345Z,96341.00
2022-12-22T04:41:19.010Z,96357.00
2022-12-22T04:43:45.693Z,96352.00
2022-12-22T04:46:12.472Z,96355.00
2022-12-22T04:48:39.173Z,96357.00
2022-12-22T04:51:06.062Z,96359.00
2022-12-22T04:53:32.826Z,96354.00
2022-12-22T04:56:05.348Z,96376.00
2022-12-22T04:58:32.702Z,96372.00
2022-12-22T05:01:09.233Z,96372.00
2022-12-22T05:03:36.149Z,96371.00
2022-12-22T05:06:03.010Z,96384.00
2022-12-22T05:08:29.745Z,96336.00
2022-12-22T05:10:56.416Z,96335.00
2022-12-22T05:13:23.102Z,96334.00
2022-12-22T05:15:49.799Z,96354.00
2022-12-22T05:18:16.492Z,96338.00
2022-12-22T05:20:43.171Z,96329.00
2022-12-22T05:23:09.954Z,96329.00
2022-12-22T05:25:36.641Z,96332.00
2022-12-22T05:28:03.543Z,96330.00
2022-12-22T05:30:30.231Z,96342.00
2022-12-22T05:32:56.957Z,96329.00
2022-12-22T05:35:23.637Z,96337.00
2022-12-22T05:37:50.303Z,96349.00
2022-12-22T05:40:17.092Z,96347.00
2022-12-22T05:42:43.844Z,96366.00
2022-12-22T05:45:14.917Z,96371.00
2022-12-22T05:47:43.288Z,96367.00
2022-12-22T05:50:11.304Z,96352.00
2022-12-22T05:52:38.059Z,96373.00
2022-12-22T05:55:05.748Z,96360.00
2022-12-22T05:57:32.408Z,96339.00
2022-12-22T05:59:59.088Z,96340.00
2022-12-22T06:02:26.061Z,96367.00
2022-12-22T06:04:52.875Z,96352.00
2022-12-22T06:07:19.553Z,96360.00
2022-12-22T06:09:46.225Z,96376.00
2022-12-22T06:12:12.955Z,96370.00
2022-12-22T06:14:39.825Z,96377.00
2022-12-22T06:17:06.485Z,96363.00
2022-12-22T06:19:33.161Z,96349.00
2022-12-22T06:21:59.847Z,96334.00
2022-12-22T06:24:26.728Z,96349.00
2022-12-22T06:26:53.394Z,96344.00
2022-12-22T06:29:20.125Z,96355.00
2022-12-22T06:31:46.844Z,96343.00
2022-12-22T06:34:13.738Z,96352.00
2022-12-22T06:36:40.465Z,96348.00
2022-12-22T06:39:07.239Z,96348.00
2022-12-22T06:41:52.471Z,96343.00
2022-12-22T06:44:19.217Z,96326.00
2022-12-22T06:46:45.950Z,96339.00
2022-12-22T06:49:12.688Z,96335.00
2022-12-22T06:51:39.344Z,96336.00
2022-12-22T06:54:06.080Z,96327.00
2022-12-22T06:56:32.745Z,96317.00
2022-12-22T06:58:59.508Z,96307.00
2022-12-22T07:01:26.436Z,96314.00
2022-12-22T07:03:53.333Z,96306.00
2022-12-22T07:06:20.088Z,96345.00
2022-12-22T07:08:47.152Z,96339.00
2022-12-22T07:11:14.622Z,96353.00
2022-12-22T07:13:41.291Z,96349.00
2022-12-22T07:16:09.130Z,96366.00
2022-12-22T07:18:41.207Z,96359.00
2022-12-22T07:21:10.442Z,96385.00
2022-12-22T07:23:37.976Z,96381.00
2022-12-22T07:26:06.337Z,96379.00
2022-12-22T07:28:35.257Z,96389.00
2022-12-22T07:31:02.608Z,96379.00
2022-12-22T07:33:29.436Z,96386.00
2022-12-22T07:36:04.677Z,96376.00
2022-12-22T07:38:33.199Z,96385.00
2022-12-22T07:41:04.892Z,96384.00
2022-12-22T07:43:32.248Z,96392.00
2022-12-22T07:45:58.947Z,96391.00
2022-12-22T07:48:44.297Z,96392.00
2022-12-22T07:51:10.967Z,96407.00
2022-12-22T07:53:39.908Z,96423.00
2022-12-22T07:56:06.986Z,96413.00
2022-12-22T07:58:33.654Z,96415.00
2022-12-22T08:01:01.387Z,96415.00
2022-12-22T08:03:28.566Z,96436.00
2022-12-22T08:05:55.331Z,96427.00
2022-12-22T08:08:22.057Z,96419.00
2022-12-22T08:10:48.818Z,96414.00
2022-12-22T08:13:15.574Z,96423.00
2022-12-22T08:15:42.356Z,96425.00
2022-12-22T08:18:09.115Z,96438.00
2022-12-22T08:20:35.809Z,96423.00
2022-12-22T08:23:02.487Z,96428.00
2022-12-22T08:25:30.596Z,96419.00
2022-12-22T08:27:57.844Z,96420.00
2022-12-22T08:30:24.608Z,96427.00
2022-12-22T08:32:51.767Z,96430.00
2022-12-22T08:35:18.850Z,96431.00
2022-12-22T08:37:46.122Z,96442.00
2022-12-22T08:40:18.195Z,96441.00
2022-12-22T08:42:45.981Z,96438.00
2022-12-22T08:45:12.854Z,96445.00
2022-12-22T08:47:39.848Z,96441.00
2022-12-22T08:50:07.253Z,96452.00
2022-12-22T08:52:33.981Z,96443.00
2022-12-22T08:55:00.680Z,96440.00
2022-12-22T08:57:27.387Z,96441.00
2022-12-22T08:59:54.174Z,96444.00
2022-12-22T09:02:20.950Z,96455.00
2022-12-22T09:04:47.681Z,96471.00
2022-12-22T09:07:14.538Z,96469.00
2022-12-22T09:09:41.209Z,96477.00
2022-12-22T09:12:08.079Z,96475.00
2022-12-22T09:14:34.790Z,96492.00
2022-12-22T09:17:01.535Z,96500.00
2022-12-22T09:19:28.413Z,96485.00
2022-12-22T09:21:55.603Z,96508.00
2022-12-22T09:24:22.482Z,96496.00
2022-12-22T09:26:49.244Z,96505.00
2022-12-22T09:29:16.803Z,96510.00
2022-12-22T09:31:43.829Z,96511.00
2022-12-22T09:34:17.238Z,96508.00
2022-12-22T09:36:45.210Z,96500.00
2022-12-22T09:39:12.002Z,96533.00
2022-12-22T09:41:53.180Z,96522.00
2022-12-22T09:44:35.003Z,96519.00
2022-12-22T09:47:03.922Z,96531.00
2022-12-22T09:49:31.158Z,96513.00
2022-12-22T09:52:00.090Z,96528.00
2022-12-22T09:54:27.479Z,96534.00
2022-12-22T09:56:54.139Z,96520.00
2022-12-22T09:59:21.724Z,96534.00
2022-12-22T10:02:00.751Z,96528.00
2022-12-22T10:04:49.268Z,96537.00
2022-12-22T10:07:27.141Z,96519.00
2022-12-22T10:09:54.023Z,96552.00
2022-12-22T10:12:23.437Z,96542.00
2022-12-22T10:14:52.405Z,96551.00
2022-12-22T10:17:34.146Z,96560.00
2022-12-22T10:20:20.248Z,96569.00
2022-12-22T10:22:54.473Z,96546.00
2022-12-22T10:26:00.376Z,96556.00
2022-12-22T10:28:27.184Z,96560.00
2022-12-22T10:31:17.161Z,96558.00
2022-12-22T10:33:47.592Z,96556.00
2022-12-22T10:36:26.658Z,96559.00
2022-12-22T10:38:58.102Z,96551.00
2022-12-22T10:41:27.296Z,96544.00
2022-12-22T10:44:09.755Z,96545.00
2022-12-22T10:46:39.953Z,96548.00
2022-12-22T10:52:30.122Z,96538.00
2022-12-22T10:55:26.184Z,96541.00
2022-12-22T10:58:09.101Z,96560.00
2022-12-22T11:00:37.257Z,96537.00
2022-12-22T11:03:07.025Z,96537.00
2022-12-22T11:05:34.071Z,96532.00
2022-12-22T11:08:17.070Z,96528.00
2022-12-22T11:10:49.614Z,96535.00
2022-12-22T11:13:23.247Z,96537.00
2022-12-22T11:15:52.851Z,96518.00
2022-12-22T11:18:50.702Z,96511.00
2022-12-22T11:21:32.658Z,96529.00
2022-12-22T11:24:06.118Z,96523.00
2022-12-22T11:26:59.754Z,96522.00
2022-12-22T11:29:36.231Z,96521.00
2022-12-22T11:32:22.607Z,96535.00
2022-12-22T11:35:00.552Z,96522.00
2022-12-22T11:37:53.473Z,96525.00
2022-12-22T11:40:41.906Z,96546.00
2022-12-22T11:43:21.051Z,96542.00
2022-12-22T11:46:21.806Z,96524.00
2022-12-22T11:49:11.500Z,96548.00
2022-12-22T11:52:13.733Z,96520.00
2022-12-22T11:55:30.028Z,96540.00
2022-12-22T11:58:34.222Z,96536.00
2022-12-22T12:01:17.870Z,96546.00
2022-12-22T12:03:53.035Z,96545.00
2022-12-22T12:06:43.126Z,96544.00
2022-12-22T12:09:53.672Z,96537.00
2022-12-22T12:12:28.792Z,96547.00
2022-12-22T12:15:21.246Z,96553.00
2022-12-22T12:18:15.252Z,96543.00
2022-12-22T12:21:21.571Z,96546.00
2022-12-22T12:23:51.243Z,96546.00
2022-12-22T12:26:23.646Z,96535.00
2022-12-22T12:29:14.141Z,96539.00
2022-12-22T12:31:54.176Z,96552.00
2022-12-22T12:34:21.940Z,96556.00
2022-12-22T12:37:00.523Z,96555.00
2022-12-22T12:39:41.121Z,96537.00
2022-12-22T12:42:26.823Z,96543.00
2022-12-22T12:44:54.237Z,96555.00
2022-12-22T12:47:32.447Z,96550.00
2022-12-22T12:50:05.491Z,96550.00
2022-12-22T12:52:55.438Z,96555.00
2022-12-22T12:55:40.263Z,96542.00
2022-12-22T12:58:11.829Z,96557.00
2022-12-22T13:00:45.219Z,96554.00
2022-12-22T13:06:49.429Z,96560.00
2022-12-22T13:12:53.385Z,96549.00
2022-12-22T13:15:35.475Z,96533.00
2022-12-22T13:18:33.826Z,96539.00
2022-12-22T13:21:50.312Z,96550.00
2022-12-22T13:26:44.097Z,96559.00
2022-12-22T13:29:22.922Z,96573.00
2022-12-22T13:31:57.952Z,96578.00
2022-12-22T13:37:43.230Z,96559.00
2022-12-22T13:40:17.194Z,96572.00
2022-12-22T13:42:49.763Z,96586.00
2022-12-22T13:45:31.569Z,96572.00
2022-12-22T13:48:00.766Z,96575.00
2022-12-22T13:50:37.723Z,96565.00
2022-12-22T13:53:07.199Z,96585.00
2022-12-22T13:55:34.188Z,96581.00
2022-12-22T13:58:12.825Z,96584.00
2022-12-22T14:00:39.544Z,96571.00
2022-12-22T14:03:41.314Z,96580.00
2022-12-22T14:06:03.109Z,96580.00
2022-12-22T14:08:29.823Z,96590.00
2022-12-22T14:10:56.496Z,96591.00
2022-12-22T14:13:32.782Z,96597.00
2022-12-22T14:16:01.736Z,96586.00
2022-12-22T14:18:29.273Z,96592.00
2022-12-22T14:20:56.553Z,96584.00
2022-12-22T14:23:38.889Z,96592.00
2022-12-22T14:26:06.484Z,96592.00
2022-12-22T14:28:50.316Z,96593.00
2022-12-22T14:31:18.036Z,96607.00
2022-12-22T14:33:56.297Z,96588.00
2022-12-22T14:36:26.766Z,96588.00
2022-12-22T14:38:55.970Z,96594.00
2022-12-22T14:41:44.144Z,96592.00
2022-12-22T14:44:23.108Z,96578.00
2022-12-22T14:47:03.889Z,96570.00
2022-12-22T14:49:30.712Z,96577.00
2022-12-22T14:52:07.373Z,96569.00
2022-12-22T14:54:34.533Z,96584.00
2022-12-22T14:57:10.078Z,96574.00
2022-12-22T14:59:41.839Z,96579.00
2022-12-22T15:02:26.883Z,96579.00
2022-12-22T15:05:39.097Z,96574.00
2022-12-22T15:08:09.222Z,96573.00
2022-12-22T15:10:43.859Z,96582.00
2022-12-22T15:13:20.659Z,96584.00
2022-12-22T15:15:47.329Z,96572.00
2022-12-22T15:18:15.077Z,96584.00
2022-12-22T15:20:42.056Z,96571.00
2022-12-22T15:23:13.973Z,96575.00
2022-12-22T15:25:40.655Z,96580.00
2022-12-22T15:28:07.401Z,96572.00
2022-12-22T15:30:34.213Z,96572.00
2022-12-22T15:33:00.961Z,96581.00
2022-12-22T15:35:32.409Z,96564.00
2022-12-22T15:37:59.705Z,96560.00
2022-12-22T15:40:27.258Z,96568.00
2022-12-22T15:42:54.088Z,96579.00
2022-12-22T15:45:22.032Z,96569.00
2022-12-22T15:47:51.502Z,96560.00
2022-12-22T15:51:07.439Z,96561.00
2022-12-22T15:53:51.412Z,96542.00
2022-12-22T15:56:26.654Z,96548.00
2022-12-22T15:58:53.570Z,96548.00
2022-12-22T16:01:24.587Z,96543.00
2022-12-22T16:04:13.518Z,96535.00
2022-12-22T16:07:13.284Z,96535.00
2022-12-22T16:09:55.832Z,96535.00
2022-12-22T16:12:28.857Z,96538.00
2022-12-22T16:15:33.779Z,96541.00
2022-12-22T16:18:48.915Z,96532.00
2022-12-22T16:28:25.355Z,96525.00
2022-12-22T16:31:39.933Z,96531.00
2022-12-22T16:34:12.239Z,96522.00
2022-12-22T16:36:39.054Z,96543.00
2022-12-22T16:39:05.823Z,96537.00
2022-12-22T16:41:32.607Z,96536.00
2022-12-22T16:44:05.690Z,96520.00
2022-12-22T16:46:35.602Z,96522.00
2022-12-22T16:49:02.317Z,96531.00
2022-12-22T16:51:33.741Z,96525.00
2022-12-22T16:54:01.283Z,96528.00
2022-12-22T16:56:30.159Z,96524.00
2022-12-22T16:58:57.072Z,96514.00
2022-12-22T17:01:53.533Z,96518.00
2022-12-22T17:04:23.369Z,96518.00
2022-12-22T17:06:51.204Z,96512.00
2022-12-22T17:09:21.564Z,96501.00
2022-12-22T17:11:48.778Z,96512.00
2022-12-22T17:14:17.273Z,96500.00
2022-12-22T17:16:43.919Z,96499.00
2022-12-22T17:19:11.555Z,96509.00
2022-12-22T17:21:38.305Z,96509.00
2022-12-22T17:24:05.201Z,96500.00
2022-12-22T17:26:33.514Z,96488.00
2022-12-22T17:29:00.445Z,96479.00
2022-12-22T17:31:27.164Z,96471.00
2022-12-22T17:33:53.926Z,96488.00
2022-12-22T17:36:31.633Z,96457.00
2022-12-22T17:38:58.763Z,96457.00
2022-12-22T17:41:25.543Z,96458.00
2022-12-22T17:43:52.210Z,96451.00
2022-12-22T17:46:21.486Z,96463.00
2022-12-22T17:48:48.870Z,96437.00
2022-12-22T17:51:27.251Z,96445.00
2022-12-22T17:53:54.866Z,96437.00
2022-12-22T17:56:23.671Z,96436.00
2022-12-22T17:58:50.538Z,96435.00
2022-12-22T18:01:29.242Z,96435.00
2022-12-22T18:03:56.561Z,96433.00
2022-12-22T18:06:26.521Z,96428.00
2022-12-22T18:08:54.575Z,96435.00
2022-12-22T18:11:22.240Z,96420.00
2022-12-22T18:13:49.063Z,96429.00
2022-12-22T18:16:17.647Z,96426.00
2022-12-22T18:18:44.792Z,96427.00
2022-12-22T18:21:21.192Z,96426.00
2022-12-22T18:23:50.639Z,96418.00
2022-12-22T18:26:29.683Z,96423.00
2022-12-22T18:28:57.015Z,96414.00
2022-12-22T18:31:24.071Z,96409.00
2022-12-22T18:33:51.551Z,96405.00
2022-12-22T18:36:30.976Z,96409.00
2022-12-22T18:38:58.885Z,96398.00
2022-12-22T18:41:26.825Z,96406.00
2022-12-22T18:43:53.772Z,96406.00
2022-12-22T18:46:20.648Z,96406.00
2022-12-22T18:48:48.092Z,96399.00
2022-12-22T18:51:19.992Z,96387.00
2022-12-22T18:53:47.210Z,96389.00
2022-12-22T18:56:14.301Z,96401.00
2022-12-22T18:58:41.489Z,96390.00
2022-12-22T19:01:17.101Z,96404.00
2022-12-22T19:03:45.460Z,96397.00
2022-12-22T19:06:17.949Z,96398.00
2022-12-22T19:08:47.097Z,96384.00
2022-12-22T19:11:15.869Z,96390.00
2022-12-22T19:13:45.224Z,96373.00
2022-12-22T19:16:17.228Z,96389.00
2022-12-22T19:18:44.283Z,96374.00
2022-12-22T19:21:13.273Z,96381.00
2022-12-22T19:23:39.988Z,96376.00
2022-12-22T19:26:09.241Z,96383.00
2022-12-22T19:28:41.490Z,96388.00
2022-12-22T19:31:10.179Z,96364.00
2022-12-22T19:33:43.627Z,96374.00
2022-12-22T19:36:28.071Z,96362.00
2022-12-22T19:39:03.496Z,96360.00
2022-12-22T19:41:49.093Z,96358.00
2022-12-22T19:44:15.680Z,96351.00
2022-12-22T19:46:42.343Z,96348.00
2022-12-22T19:49:15.224Z,96343.00
2022-12-22T19:51:41.978Z,96334.00
2022-12-22T19:54:08.634Z,96326.00
2022-12-22T19:56:36.259Z,96328.00
2022-12-22T19:59:05.403Z,96323.00
2022-12-22T20:01:32.160Z,96335.00
2022-12-22T20:03:58.991Z,96307.00
2022-12-22T20:06:25.646Z,96301.00
2022-12-22T20:08:52.357Z,96287.00
2022-12-22T20:11:20.203Z,96290.00
2022-12-22T20:13:47.547Z,96276.00
2022-12-22T20:16:16.237Z,96278.00
2022-12-22T20:18:43.981Z,96267.00
2022-12-22T20:21:15.657Z,96260.00
2022-12-22T20:23:42.309Z,96259.00
2022-12-22T20:26:14.919Z,96253.00
2022-12-22T20:28:41.608Z,96233.00
2022-12-22T20:31:12.100Z,96227.00
2022-12-22T20:33:38.787Z,96227.00
2022-12-22T20:36:25.004Z,96207.00
2022-12-22T20:38:54.228Z,96217.00
2022-12-22T20:41:21.671Z,96205.00
2022-12-22T20:43:49.080Z,96208.00
2022-12-22T20:46:17.208Z,96196.00
2022-12-22T20:48:49.796Z,96190.00
2022-12-22T20:51:18.752Z,96187.00
2022-12-22T20:53:46.348Z,96177.00
2022-12-22T20:56:19.530Z,96167.00
2022-12-22T20:58:46.529Z,96172.00
2022-12-22T21:01:13.318Z,96173.00
2022-12-22T21:03:40.155Z,96183.00
2022-12-22T21:06:17.470Z,96194.00
2022-12-22T21:08:44.177Z,96184.00
2022-12-22T21:11:10.910Z,96168.00
2022-12-22T21:13:37.573Z,96164.00
2022-12-22T21:16:04.457Z,96154.00
2022-12-22T21:18:31.165Z,96147.00
2022-12-22T21:20:57.837Z,96160.00
2022-12-22T21:23:24.497Z,96161.00
2022-12-22T21:25:52.842Z,96154.00
2022-12-22T21:28:32.827Z,96161.00
2022-12-22T21:31:00.057Z,96169.00
2022-12-22T21:33:26.791Z,96152.00
2022-12-22T21:35:54.393Z,96147.00
2022-12-22T21:38:23.132Z,96163.00
2022-12-22T21:40:49.971Z,96135.00
2022-12-22T21:43:16.910Z,96130.00
2022-12-22T21:45:44.670Z,96143.00
2022-12-22T21:48:13.238Z,96135.00
2022-12-22T21:50:40.507Z,96136.00
2022-12-22T21:53:07.259Z,96134.00
2022-12-22T21:55:38.264Z,96126.00
2022-12-22T21:58:06.225Z,96130.00
2022-12-22T22:00:33.737Z,96116.00
2022-12-22T22:03:02.025Z,96121.00
2022-12-22T22:05:33.668Z,96134.00
2022-12-22T22:08:01.308Z,96125.00
2022-12-22T22:10:33.522Z,96129.00
2022-12-22T22:13:00.767Z,96112.00
2022-12-22T22:15:28.416Z,96114.00
2022-12-22T22:17:56.279Z,96124.00
2022-12-22T22:20:27.909Z,96111.00
2022-12-22T22:22:56.012Z,96131.00
2022-12-22T22:25:22.997Z,96112.00
2022-12-22T22:27:49.917Z,96121.00
2022-12-22T22:30:21.459Z,96123.00
2022-12-22T22:32:48.776Z,96113.00
2022-12-22T22:35:16.264Z,96130.00
2022-12-22T22:37:44.411Z,96112.00
2022-12-22T22:40:13.605Z,96104.00
2022-12-22T22:42:40.922Z,96117.00
2022-12-22T22:45:08.435Z,96117.00
2022-12-22T22:47:35.266Z,96134.00
2022-12-22T22:50:06.799Z,96128.00
2022-12-22T22:52:33.838Z,96122.00
2022-12-22T22:55:00.658Z,96134.00
2022-12-22T22:57:27.565Z,96121.00
2022-12-22T22:59:54.315Z,96151.00
2022-12-22T23:02:21.092Z,96151.00
2022-12-22T23:04:47.984Z,96141.00
2022-12-22T23:07:14.665Z,96138.00
2022-12-22T23:09:41.366Z,96143.00
2022-12-22T23:12:08.087Z,96126.00
2022-12-22T23:14:34.792Z,96138.00
2022-12-22T23:17:01.481Z,96137.00
2022-12-22T23:19:28.283Z,96133.00
2022-12-22T23:21:54.953Z,96134.00
2022-12-22T23:24:21.671Z,96147.00
2022-12-22T23:26:48.528Z,96131.00
2022-12-22T23:29:15.441Z,96126.00
2022-12-22T23:31:42.212Z,96134.00
2022-12-22T23:34:10.997Z,96145.00
2022-12-22T23:36:37.698Z,96128.00
2022-12-22T23:39:04.483Z,96139.00
2022-12-22T23:41:31.210Z,96142.00
2022-12-22T23:43:57.933Z,96137.00
2022-12-22T23:46:24.710Z,96129.00
2022-12-22T23:48:57.320Z,96123.00
2022-12-22T23:51:29.734Z,96146.00
2022-12-22T23:53:58.297Z,96130.00
2022-12-22T23:56:25.133Z,96136.00
2022-12-22T23:58:54.850Z,96132.00
